createdAt,value
2022-10-09T00:01:06.477Z,17.25
2022-10-09T00:04:14.378Z,15.00
2022-10-09T00:07:16.406Z,15.75
2022-10-09T00:10:18.784Z,17.00
2022-10-09T00:13:20.807Z,14.00
2022-10-09T00:16:24.555Z,15.00
2022-10-09T00:19:26.897Z,18.00
2022-10-09T00:22:29.283Z,19.00
2022-10-09T00:25:31.679Z,18.50
2022-10-09T00:28:38.321Z,15.50
2022-10-09T00:31:40.764Z,16.25
2022-10-09T00:34:43.103Z,14.50
2022-10-09T00:37:45.107Z,14.50
2022-10-09T00:40:47.373Z,15.00
2022-10-09T00:43:56.141Z,15.50
2022-10-09T00:46:58.400Z,16.75
2022-10-09T00:50:07.316Z,14.00
2022-10-09T00:53:12.826Z,16.00
2022-10-09T00:56:14.902Z,15.00
2022-10-09T00:59:17.974Z,16.75
2022-10-09T01:02:20.230Z,16.25
2022-10-09T01:05:29.466Z,15.25
2022-10-09T01:08:55.961Z,16.25
2022-10-09T01:12:18.509Z,15.00
2022-10-09T01:15:46.546Z,18.25
2022-10-09T01:19:13.825Z,17.00
2022-10-09T01:22:53.358Z,17.00
2022-10-09T01:25:58.698Z,16.50
2022-10-09T01:29:05.519Z,13.50
2022-10-09T01:32:09.776Z,19.50
2022-10-09T01:35:12.977Z,17.50
2022-10-09T01:38:16.166Z,19.50
2022-10-09T01:41:18.612Z,15.50
2022-10-09T01:44:27.416Z,16.00
2022-10-09T01:47:29.419Z,13.50
2022-10-09T01:50:34.950Z,15.25
2022-10-09T01:53:36.977Z,12.75
2022-10-09T01:56:39.664Z,14.00
2022-10-09T01:59:44.518Z,11.00
2022-10-09T02:02:47.668Z,13.00
2022-10-09T02:05:51.716Z,14.75
2022-10-09T02:08:55.636Z,11.50
2022-10-09T02:12:01.117Z,14.50
2022-10-09T02:15:03.490Z,11.75
2022-10-09T02:18:15.795Z,12.00
2022-10-09T02:21:23.768Z,9.25
2022-10-09T02:24:26.007Z,15.00
2022-10-09T02:27:28.466Z,12.00
2022-10-09T02:30:37.783Z,12.25
2022-10-09T02:33:40.083Z,12.00
2022-10-09T02:36:42.135Z,11.00
2022-10-09T02:39:44.661Z,12.75
2022-10-09T02:42:47.139Z,12.00
2022-10-09T02:45:49.499Z,12.00
2022-10-09T02:48:51.608Z,13.00
2022-10-09T02:51:53.748Z,12.25
2022-10-09T02:54:55.798Z,12.00
2022-10-09T02:57:58.118Z,12.50
2022-10-09T03:01:00.391Z,11.75
2022-10-09T03:04:03.085Z,10.00
2022-10-09T03:07:05.443Z,10.00
2022-10-09T03:10:07.921Z,11.50
2022-10-09T03:13:10.093Z,12.00
2022-10-09T03:16:15.559Z,11.75
2022-10-09T03:19:17.715Z,11.25
2022-10-09T03:22:19.928Z,12.00
2022-10-09T03:25:21.953Z,12.25
2022-10-09T03:28:24.282Z,10.25
2022-10-09T03:34:49.571Z,11.00
2022-10-09T03:37:51.719Z,12.00
2022-10-09T03:40:54.044Z,12.00
2022-10-09T03:43:56.129Z,12.25
2022-10-09T03:46:58.448Z,12.00
2022-10-09T03:50:00.486Z,10.25
2022-10-09T03:53:03.858Z,15.00
2022-10-09T03:56:06.101Z,14.75
2022-10-09T03:59:09.677Z,15.00
2022-10-09T04:02:11.699Z,14.75
2022-10-09T04:05:14.417Z,15.50
2022-10-09T04:08:16.434Z,15.25
2022-10-09T04:11:19.115Z,15.75
2022-10-09T04:14:21.098Z,16.75
2022-10-09T04:17:23.278Z,15.75
2022-10-09T04:20:25.250Z,16.00
2022-10-09T04:23:28.361Z,16.50
2022-10-09T04:26:30.351Z,16.50
2022-10-09T04:29:32.628Z,16.00
2022-10-09T04:32:34.642Z,18.75
2022-10-09T04:35:36.881Z,19.00
2022-10-09T04:38:38.838Z,17.00
2022-10-09T04:41:41.087Z,15.00
2022-10-09T04:44:43.084Z,15.00
2022-10-09T04:47:45.350Z,13.50
2022-10-09T04:50:47.593Z,15.75
2022-10-09T04:53:50.092Z,15.75
2022-10-09T04:56:52.205Z,14.50
2022-10-09T04:59:54.645Z,11.00
2022-10-09T05:02:56.674Z,11.75
2022-10-09T05:06:02.858Z,11.00
2022-10-09T05:09:04.968Z,11.00
2022-10-09T05:12:07.355Z,11.00
2022-10-09T05:15:09.918Z,9.25
2022-10-09T05:18:12.088Z,10.00
2022-10-09T05:21:14.972Z,9.50
2022-10-09T05:24:17.216Z,8.25
2022-10-09T05:27:19.489Z,9.00
2022-10-09T05:30:21.692Z,7.25
2022-10-09T05:33:23.877Z,8.50
2022-10-09T05:36:26.102Z,7.50
2022-10-09T05:39:28.139Z,10.00
2022-10-09T05:42:30.357Z,11.00
2022-10-09T05:45:32.469Z,10.00
2022-10-09T05:48:35.405Z,9.50
2022-10-09T05:51:39.078Z,8.75
2022-10-09T05:54:42.017Z,6.25
2022-10-09T05:57:44.273Z,8.00
2022-10-09T06:00:46.502Z,6.00
2022-10-09T06:03:50.905Z,8.00
2022-10-09T06:06:53.105Z,9.25
2022-10-09T06:09:55.752Z,7.75
2022-10-09T06:12:57.964Z,8.25
2022-10-09T06:16:00.418Z,8.00
2022-10-09T06:19:03.203Z,7.25
2022-10-09T06:22:05.621Z,9.25
2022-10-09T06:25:08.377Z,8.00
2022-10-09T06:28:10.430Z,5.75
2022-10-09T06:31:15.151Z,6.50
2022-10-09T06:34:17.542Z,8.00
2022-10-09T06:37:19.796Z,7.25
2022-10-09T06:40:22.324Z,7.00
2022-10-09T06:43:24.508Z,7.00
2022-10-09T06:46:32.371Z,7.00
2022-10-09T06:49:34.692Z,5.00
2022-10-09T06:52:36.901Z,6.75
2022-10-09T06:55:39.201Z,5.50
2022-10-09T06:58:41.688Z,7.00
2022-10-09T07:01:44.149Z,6.00
2022-10-09T07:04:47.403Z,7.50
2022-10-09T07:07:49.864Z,8.00
2022-10-09T07:10:52.298Z,6.00
2022-10-09T07:13:59.711Z,7.00
2022-10-09T07:17:02.688Z,8.00
2022-10-09T07:20:05.373Z,6.75
2022-10-09T07:23:07.868Z,6.25
2022-10-09T07:26:22.044Z,7.00
2022-10-09T07:29:24.123Z,6.00
2022-10-09T07:32:26.365Z,7.00
2022-10-09T07:35:28.409Z,6.00
2022-10-09T07:38:31.051Z,6.00
2022-10-09T07:41:33.331Z,7.00
2022-10-09T07:44:35.689Z,5.00
2022-10-09T07:47:37.791Z,6.00
2022-10-09T07:50:40.508Z,7.00
2022-10-09T07:53:44.893Z,7.00
2022-10-09T07:56:47.273Z,6.00
2022-10-09T07:59:49.516Z,6.00
2022-10-09T08:02:52.548Z,7.00
2022-10-09T08:05:55.988Z,7.00
2022-10-09T08:09:00.150Z,6.00
2022-10-09T08:12:02.269Z,5.50
2022-10-09T08:15:05.080Z,8.00
2022-10-09T08:18:07.489Z,7.00
2022-10-09T08:21:13.561Z,6.75
2022-10-09T08:24:15.862Z,7.00
2022-10-09T08:27:18.152Z,7.00
2022-10-09T08:30:20.285Z,3.00
2022-10-09T08:33:23.533Z,7.00
2022-10-09T08:36:26.475Z,7.00
2022-10-09T08:39:31.051Z,6.00
2022-10-09T08:42:41.471Z,5.50
2022-10-09T08:45:47.985Z,6.00
2022-10-09T08:48:50.873Z,6.00
2022-10-09T08:51:54.501Z,6.00
2022-10-09T08:54:59.795Z,6.50
2022-10-09T08:58:06.268Z,6.00
2022-10-09T09:01:14.587Z,6.50
2022-10-09T09:04:38.529Z,6.00
2022-10-09T09:07:40.741Z,5.00
2022-10-09T09:10:54.489Z,4.50
2022-10-09T09:14:24.083Z,6.00
2022-10-09T09:17:38.132Z,2.00
2022-10-09T09:20:53.572Z,6.00
2022-10-09T09:23:59.706Z,6.50
2022-10-09T09:27:04.680Z,6.00
2022-10-09T09:30:12.909Z,4.50
2022-10-09T09:33:24.473Z,6.00
2022-10-09T09:36:51.862Z,3.00
2022-10-09T09:40:35.092Z,6.75
2022-10-09T09:43:24.009Z,6.00
2022-10-09T09:46:29.318Z,7.00
2022-10-09T09:49:32.069Z,7.25
2022-10-09T09:52:40.589Z,7.00
2022-10-09T09:55:42.930Z,6.75
2022-10-09T09:58:50.326Z,6.25
2022-10-09T10:02:12.187Z,6.75
2022-10-09T10:05:26.277Z,6.00
2022-10-09T10:08:33.117Z,7.00
2022-10-09T10:11:35.799Z,7.00
2022-10-09T10:14:38.191Z,6.75
2022-10-09T10:17:40.188Z,5.50
2022-10-09T10:20:47.928Z,6.00
2022-10-09T10:27:15.971Z,7.50
2022-10-09T10:30:19.590Z,5.50
2022-10-09T10:33:25.501Z,6.00
2022-10-09T10:36:28.622Z,5.50
2022-10-09T10:39:53.021Z,7.00
2022-10-09T10:43:14.927Z,6.50
2022-10-09T10:46:28.951Z,7.00
2022-10-09T10:49:33.859Z,8.00
2022-10-09T10:53:07.823Z,6.25
2022-10-09T10:56:27.561Z,6.00
2022-10-09T10:59:48.703Z,8.00
2022-10-09T11:03:12.421Z,8.50
2022-10-09T11:06:23.850Z,8.75
2022-10-09T11:09:50.617Z,8.50
2022-10-09T11:12:57.662Z,8.00
2022-10-09T11:16:37.130Z,6.75
2022-10-09T11:20:16.707Z,8.50
2022-10-09T11:23:51.062Z,8.00
2022-10-09T11:27:14.125Z,7.00
2022-10-09T11:30:17.991Z,8.00
2022-10-09T11:33:35.746Z,7.25
2022-10-09T11:36:42.692Z,7.25
2022-10-09T11:39:45.343Z,6.50
2022-10-09T11:42:59.284Z,8.00
2022-10-09T11:46:05.266Z,5.00
2022-10-09T11:49:07.289Z,5.50
2022-10-09T11:52:46.706Z,7.25
2022-10-09T11:55:48.779Z,7.00
2022-10-09T11:58:58.652Z,5.25
2022-10-09T12:02:25.828Z,7.00
2022-10-09T12:05:47.719Z,5.00
2022-10-09T12:08:58.943Z,7.00
2022-10-09T12:12:17.537Z,7.00
2022-10-09T12:15:57.599Z,8.50
2022-10-09T12:19:12.417Z,8.00
2022-10-09T12:22:22.004Z,8.00
2022-10-09T12:25:28.966Z,8.00
2022-10-09T12:28:59.917Z,8.25
2022-10-09T12:32:06.936Z,8.50
2022-10-09T12:35:29.432Z,8.00
2022-10-09T12:38:32.270Z,8.50
2022-10-09T12:41:34.594Z,10.25
2022-10-09T12:44:40.000Z,9.00
2022-10-09T12:47:43.730Z,9.25
2022-10-09T12:50:46.994Z,10.00
2022-10-09T12:53:51.564Z,9.50
2022-10-09T12:56:55.697Z,9.00
2022-10-09T12:59:58.273Z,9.25
2022-10-09T13:03:01.930Z,9.00
2022-10-09T13:06:13.519Z,10.00
2022-10-09T13:09:28.438Z,9.25
2022-10-09T13:12:31.455Z,8.25
2022-10-09T13:15:36.414Z,9.00
2022-10-09T13:18:38.612Z,8.75
2022-10-09T13:21:40.828Z,9.00
2022-10-09T13:24:43.005Z,8.00
2022-10-09T13:27:45.641Z,9.50
2022-10-09T13:30:47.960Z,9.50
2022-10-09T13:33:50.953Z,10.00
2022-10-09T13:36:53.425Z,7.75
2022-10-09T13:39:58.188Z,7.00
2022-10-09T13:43:03.015Z,8.25
2022-10-09T13:46:05.476Z,7.50
2022-10-09T13:49:07.621Z,6.50
2022-10-09T13:52:10.146Z,8.50
2022-10-09T13:55:12.798Z,8.00
2022-10-09T13:58:15.081Z,7.50
2022-10-09T14:01:17.457Z,8.75
2022-10-09T14:04:20.182Z,8.25
2022-10-09T14:07:22.437Z,6.00
2022-10-09T14:10:24.866Z,6.50
2022-10-09T14:13:27.613Z,6.50
2022-10-09T14:16:30.690Z,8.00
2022-10-09T14:19:32.947Z,8.00
2022-10-09T14:22:35.647Z,8.25
2022-10-09T14:25:37.758Z,9.00
2022-10-09T14:28:40.328Z,7.75
2022-10-09T14:31:42.591Z,6.00
2022-10-09T14:34:44.892Z,5.00
2022-10-09T14:37:46.962Z,6.00
2022-10-09T14:40:49.340Z,0.00
2022-10-09T14:43:57.004Z,6.00
2022-10-09T14:46:59.343Z,6.25
2022-10-09T14:50:01.513Z,6.25
2022-10-09T14:53:03.805Z,8.00
2022-10-09T14:56:09.614Z,6.25
2022-10-09T14:59:12.224Z,8.00
2022-10-09T15:02:18.177Z,8.00
2022-10-09T15:05:20.426Z,7.00
2022-10-09T15:08:22.480Z,7.00
2022-10-09T15:11:24.944Z,7.00
2022-10-09T15:14:27.107Z,9.00
2022-10-09T15:17:29.410Z,7.00
2022-10-09T15:20:31.565Z,5.50
2022-10-09T15:23:33.954Z,7.75
2022-10-09T15:26:39.043Z,7.00
2022-10-09T15:29:41.323Z,8.00
2022-10-09T15:32:43.590Z,7.75
2022-10-09T15:35:46.020Z,8.00
2022-10-09T15:38:48.740Z,8.00
2022-10-09T15:41:51.116Z,8.50
2022-10-09T15:44:53.350Z,7.00
2022-10-09T15:47:55.673Z,9.00
2022-10-09T15:50:57.738Z,8.25
2022-10-09T15:54:01.608Z,7.25
2022-10-09T15:57:03.738Z,7.75
2022-10-09T16:00:06.809Z,8.00
2022-10-09T16:03:11.182Z,8.00
2022-10-09T16:06:30.352Z,8.00
2022-10-09T16:09:36.339Z,7.25
2022-10-09T16:12:38.675Z,7.25
2022-10-09T16:15:45.011Z,8.25
2022-10-09T16:18:47.860Z,9.00
2022-10-09T16:21:51.138Z,8.00
2022-10-09T16:24:54.207Z,7.00
2022-10-09T16:27:56.509Z,7.00
2022-10-09T16:30:58.823Z,7.00
2022-10-09T16:34:05.680Z,8.75
2022-10-09T16:37:07.953Z,8.00
2022-10-09T16:40:10.909Z,11.00
2022-10-09T16:43:13.521Z,9.50
2022-10-09T16:46:28.748Z,7.00
2022-10-09T16:49:31.442Z,8.50
2022-10-09T16:52:33.831Z,8.75
2022-10-09T16:55:36.344Z,8.00
2022-10-09T16:58:39.011Z,8.00
2022-10-09T17:01:45.119Z,7.50
2022-10-09T17:04:47.296Z,7.75
2022-10-09T17:07:49.868Z,6.75
2022-10-09T17:10:52.108Z,9.50
2022-10-09T17:13:57.804Z,9.00
2022-10-09T17:16:59.805Z,7.00
2022-10-09T17:20:02.085Z,10.75
2022-10-09T17:23:05.050Z,11.50
2022-10-09T17:26:09.293Z,14.75
2022-10-09T17:29:12.864Z,14.25
2022-10-09T17:32:15.126Z,16.75
2022-10-09T17:35:17.549Z,17.00
2022-10-09T17:38:19.852Z,15.00
2022-10-09T17:41:23.978Z,16.00
2022-10-09T17:44:28.578Z,18.50
2022-10-09T17:47:30.591Z,17.00
2022-10-09T17:50:33.235Z,19.00
2022-10-09T17:53:35.332Z,15.00
2022-10-09T17:56:38.526Z,16.25
2022-10-09T17:59:40.829Z,18.00
2022-10-09T18:02:43.097Z,18.75
2022-10-09T18:05:48.447Z,26.00
2022-10-09T18:09:01.345Z,26.00
2022-10-09T18:12:03.674Z,20.33
2022-10-09T18:15:06.496Z,22.00
2022-10-09T18:18:10.151Z,19.67
2022-10-09T18:21:17.123Z,19.00
2022-10-09T18:24:19.361Z,19.33
2022-10-09T18:27:23.913Z,17.00
2022-10-09T18:30:27.770Z,18.00
2022-10-09T18:33:30.605Z,17.00
2022-10-09T18:36:34.345Z,18.50
2022-10-09T18:39:36.988Z,21.00
2022-10-09T18:42:40.627Z,22.00
2022-10-09T18:45:45.599Z,21.00
2022-10-09T18:48:54.684Z,23.00
2022-10-09T18:51:59.238Z,21.00
2022-10-09T18:55:01.638Z,16.67
2022-10-09T18:58:04.934Z,21.00
2022-10-09T19:01:07.798Z,20.00
2022-10-09T19:04:10.450Z,23.33
2022-10-09T19:07:12.684Z,24.00
2022-10-09T19:10:15.460Z,19.67
2022-10-09T19:13:18.076Z,21.67
2022-10-09T19:16:21.053Z,21.33
2022-10-09T19:19:23.196Z,23.00
2022-10-09T19:22:26.173Z,21.00
2022-10-09T19:25:28.440Z,21.67
2022-10-09T19:28:32.882Z,21.00
2022-10-09T19:31:35.757Z,21.00
2022-10-09T19:34:38.032Z,20.67
2022-10-09T19:37:40.154Z,21.33
2022-10-09T19:40:42.723Z,22.33
2022-10-09T19:43:45.077Z,22.33
2022-10-09T19:46:48.308Z,18.33
2022-10-09T19:49:50.585Z,16.00
2022-10-09T19:52:53.010Z,20.00
2022-10-09T19:55:55.332Z,21.33
2022-10-09T19:58:58.545Z,20.00
2022-10-09T20:02:00.999Z,20.00
2022-10-09T20:05:04.738Z,20.00
2022-10-09T20:08:07.775Z,22.00
2022-10-09T20:11:11.628Z,20.67
2022-10-09T20:14:13.858Z,21.33
2022-10-09T20:17:17.360Z,22.00
2022-10-09T20:20:19.512Z,23.33
2022-10-09T20:23:22.017Z,22.00
2022-10-09T20:26:24.580Z,20.67
2022-10-09T20:29:28.116Z,26.67
2022-10-09T20:32:31.455Z,23.00
2022-10-09T20:35:42.054Z,24.67
2022-10-09T20:38:44.230Z,30.00
2022-10-09T20:41:46.534Z,25.00
2022-10-09T20:44:48.624Z,25.00
2022-10-09T20:47:50.897Z,26.00
2022-10-09T20:50:53.165Z,24.00
2022-10-09T20:53:58.506Z,23.33
2022-10-09T20:57:00.863Z,21.00
2022-10-09T21:00:04.742Z,26.00
2022-10-09T21:03:11.622Z,24.33
2022-10-09T21:06:17.542Z,20.33
2022-10-09T21:09:19.557Z,21.67
2022-10-09T21:12:21.782Z,21.00
2022-10-09T21:15:23.828Z,21.67
2022-10-09T21:18:26.137Z,19.00
2022-10-09T21:21:29.117Z,19.00
2022-10-09T21:24:31.345Z,18.00
2022-10-09T21:27:33.368Z,17.00
2022-10-09T21:30:41.421Z,21.33
2022-10-09T21:33:44.105Z,21.67
2022-10-09T21:37:16.409Z,18.00
2022-10-09T21:40:12.505Z,18.33
2022-10-09T21:43:15.017Z,18.67
2022-10-09T21:46:17.059Z,18.67
2022-10-09T21:49:23.160Z,19.67
2022-10-09T21:52:25.283Z,15.00
2022-10-09T21:55:27.493Z,18.00
2022-10-09T21:58:29.565Z,19.00
2022-10-09T22:01:33.622Z,18.33
2022-10-09T22:04:35.848Z,18.00
2022-10-09T22:07:38.317Z,17.00
2022-10-09T22:10:42.113Z,17.00
2022-10-09T22:13:44.682Z,17.00
2022-10-09T22:16:46.726Z,17.33
2022-10-09T22:19:49.052Z,17.00
2022-10-09T22:22:51.601Z,17.00
2022-10-09T22:25:58.885Z,14.67
2022-10-09T22:29:01.326Z,18.00
2022-10-09T22:32:03.829Z,20.00
2022-10-09T22:35:06.264Z,14.00
2022-10-09T22:38:08.627Z,18.00
2022-10-09T22:41:18.612Z,17.00
2022-10-09T22:44:21.006Z,16.67
2022-10-09T22:47:22.947Z,14.67
2022-10-09T22:50:25.186Z,17.00
2022-10-09T22:53:27.126Z,17.00
2022-10-09T22:56:40.476Z,15.33
2022-10-09T22:59:42.815Z,15.67
2022-10-09T23:02:45.070Z,15.33
2022-10-09T23:05:47.120Z,15.33
2022-10-09T23:08:49.826Z,17.00
2022-10-09T23:11:52.222Z,17.67
2022-10-09T23:14:54.592Z,17.00
2022-10-09T23:17:56.594Z,18.33
2022-10-09T23:21:03.346Z,20.67
2022-10-09T23:24:06.412Z,17.33
2022-10-09T23:27:08.737Z,20.00
2022-10-09T23:30:11.204Z,20.33
2022-10-09T23:33:13.443Z,19.00
2022-10-09T23:36:18.694Z,20.33
2022-10-09T23:39:21.098Z,20.00
2022-10-09T23:42:23.086Z,19.33
2022-10-09T23:45:25.362Z,19.00
2022-10-09T23:48:27.974Z,16.67
2022-10-09T23:51:30.518Z,19.00
2022-10-09T23:54:32.470Z,17.33
2022-10-09T23:57:36.956Z,18.33
